createdAt,value
2023-07-03T00:00:45.041Z,57.81
2023-07-03T00:01:45.043Z,57.71
2023-07-03T00:02:45.036Z,57.81
2023-07-03T00:03:45.063Z,58.01
2023-07-03T00:04:45.212Z,57.91
2023-07-03T00:05:45.122Z,58.01
2023-07-03T00:06:45.032Z,58.01
2023-07-03T00:07:44.994Z,58.01
2023-07-03T00:08:44.995Z,58.01
2023-07-03T00:09:44.993Z,58.01
2023-07-03T00:10:44.922Z,58.25
2023-07-03T00:11:44.993Z,58.32
2023-07-03T00:12:45.008Z,58.45
2023-07-03T00:13:44.914Z,58.34
2023-07-03T00:14:44.908Z,58.54
2023-07-03T00:15:44.902Z,58.54
2023-07-03T00:16:45.051Z,58.45
2023-07-03T00:17:44.939Z,58.85
2023-07-03T00:18:44.879Z,58.75
2023-07-03T00:19:44.873Z,58.85
2023-07-03T00:20:44.886Z,58.65
2023-07-03T00:21:45.097Z,59.05
2023-07-03T00:22:44.881Z,58.75
2023-07-03T00:23:44.794Z,58.85
2023-07-03T00:24:44.786Z,58.85
2023-07-03T00:25:44.797Z,59.05
2023-07-03T00:26:44.786Z,59.05
2023-07-03T00:27:44.794Z,59.05
2023-07-03T00:28:44.799Z,59.05
2023-07-03T00:29:44.759Z,59.05
2023-07-03T00:30:44.769Z,59.25
2023-07-03T00:31:44.793Z,59.18
2023-07-03T00:32:44.792Z,59.48
2023-07-03T00:33:44.666Z,59.38
2023-07-03T00:34:44.700Z,59.48
2023-07-03T00:35:44.667Z,59.78
2023-07-03T00:36:44.681Z,59.89
2023-07-03T00:37:44.763Z,59.58
2023-07-03T00:38:45.608Z,59.69
2023-07-03T00:39:44.683Z,59.89
2023-07-03T00:40:44.678Z,60.09
2023-07-03T00:41:45.604Z,60.19
2023-07-03T00:42:44.674Z,60.09
2023-07-03T00:43:44.569Z,60.29
2023-07-03T00:44:44.558Z,60.19
2023-07-03T00:45:44.570Z,60.19
2023-07-03T00:46:44.667Z,60.19
2023-07-03T00:47:44.614Z,59.99
2023-07-03T00:48:44.647Z,60.09
2023-07-03T00:49:44.584Z,60.09
2023-07-03T00:50:47.085Z,60.29
2023-07-03T00:51:44.537Z,60.22
2023-07-03T00:52:44.534Z,60.32
2023-07-03T00:53:44.462Z,60.49
2023-07-03T00:54:44.445Z,60.62
2023-07-03T00:55:44.433Z,60.62
2023-07-03T00:56:44.461Z,60.72
2023-07-03T00:57:44.521Z,60.82
2023-07-03T00:58:44.445Z,60.72
2023-07-03T00:59:44.442Z,60.93
2023-07-03T01:00:44.526Z,60.72
2023-07-03T01:01:44.466Z,60.82
2023-07-03T01:02:44.460Z,61.13
2023-07-03T01:03:44.426Z,61.23
2023-07-03T01:04:44.442Z,61.03
2023-07-03T01:05:44.404Z,61.23
2023-07-03T01:06:44.327Z,61.33
2023-07-03T01:07:44.405Z,61.43
2023-07-03T01:08:44.329Z,61.33
2023-07-03T01:09:44.320Z,61.63
2023-07-03T01:10:44.332Z,61.83
2023-07-03T01:11:44.300Z,61.83
2023-07-03T01:12:44.338Z,61.83
2023-07-03T01:13:44.318Z,61.94
2023-07-03T01:14:44.297Z,61.73
2023-07-03T01:15:44.253Z,62.24
2023-07-03T01:16:44.253Z,61.94
2023-07-03T01:17:44.249Z,61.94
2023-07-03T01:18:44.295Z,61.96
2023-07-03T01:19:44.199Z,62.27
2023-07-03T01:20:44.202Z,62.34
2023-07-03T01:21:44.211Z,62.44
2023-07-03T01:22:44.173Z,62.57
2023-07-03T01:23:44.172Z,62.57
2023-07-03T01:24:44.232Z,62.67
2023-07-03T01:25:44.173Z,62.57
2023-07-03T01:26:44.093Z,62.54
2023-07-03T01:27:44.092Z,62.77
2023-07-03T01:28:44.098Z,62.77
2023-07-03T01:29:44.173Z,62.57
2023-07-03T01:30:44.100Z,62.98
2023-07-03T01:31:44.110Z,62.98
2023-07-03T01:32:46.683Z,62.87
2023-07-03T01:33:44.068Z,63.18
2023-07-03T01:34:44.092Z,63.28
2023-07-03T01:35:44.061Z,63.18
2023-07-03T01:36:44.071Z,63.18
2023-07-03T01:37:44.058Z,63.38
2023-07-03T01:38:43.987Z,63.28
2023-07-03T01:39:43.984Z,63.38
2023-07-03T01:40:44.057Z,63.38
2023-07-03T01:41:44.062Z,63.38
2023-07-03T01:42:43.976Z,63.58
2023-07-03T01:43:43.979Z,63.58
2023-07-03T01:44:43.971Z,63.58
2023-07-03T01:45:46.689Z,63.58
2023-07-03T01:46:43.960Z,63.78
2023-07-03T01:47:43.950Z,63.78
2023-07-03T01:48:43.876Z,63.68
2023-07-03T01:49:43.861Z,63.78
2023-07-03T01:50:43.943Z,63.78
2023-07-03T01:51:43.916Z,63.68
2023-07-03T01:52:43.852Z,63.89
2023-07-03T01:53:43.950Z,64.09
2023-07-03T01:54:43.857Z,64.19
2023-07-03T01:55:43.860Z,64.09
2023-07-03T01:56:43.835Z,64.29
2023-07-03T01:57:43.835Z,64.19
2023-07-03T01:58:43.768Z,64.19
2023-07-03T01:59:43.770Z,64.29
2023-07-03T02:00:43.834Z,64.39
2023-07-03T02:01:43.870Z,64.49
2023-07-03T02:02:43.838Z,64.59
2023-07-03T02:03:43.864Z,64.49
2023-07-03T02:04:43.797Z,64.49
2023-07-03T02:05:43.744Z,64.70
2023-07-03T02:06:43.708Z,64.59
2023-07-03T02:07:43.720Z,64.79
2023-07-03T02:08:43.710Z,64.79
2023-07-03T02:09:43.741Z,64.79
2023-07-03T02:10:43.631Z,64.90
2023-07-03T02:11:43.619Z,64.90
2023-07-03T02:12:43.644Z,65.00
2023-07-03T02:13:43.861Z,65.00
2023-07-03T02:14:43.709Z,65.00
2023-07-03T02:15:43.654Z,65.00
2023-07-03T02:16:43.648Z,65.30
2023-07-03T02:17:43.677Z,65.30
2023-07-03T02:18:43.588Z,65.20
2023-07-03T02:19:43.653Z,65.40
2023-07-03T02:20:43.597Z,65.10
2023-07-03T02:21:43.545Z,65.20
2023-07-03T02:22:43.508Z,65.30
2023-07-03T02:23:43.502Z,65.20
2023-07-03T02:24:43.511Z,65.10
2023-07-03T02:25:43.522Z,65.20
2023-07-03T02:26:43.605Z,65.30
2023-07-03T02:27:43.508Z,65.40
2023-07-03T02:28:43.509Z,65.40
2023-07-03T02:29:43.491Z,65.30
2023-07-03T02:30:45.206Z,65.40
2023-07-03T02:31:43.522Z,65.50
2023-07-03T02:32:43.447Z,65.50
2023-07-03T02:33:43.383Z,65.40
2023-07-03T02:34:43.471Z,65.61
2023-07-03T02:35:43.397Z,65.81
2023-07-03T02:36:43.383Z,65.91
2023-07-03T02:37:43.408Z,66.01
2023-07-03T02:38:43.365Z,66.01
2023-07-03T02:39:43.399Z,66.11
2023-07-03T02:40:43.363Z,66.01
2023-07-03T02:41:43.290Z,66.11
2023-07-03T02:42:43.364Z,66.21
2023-07-03T02:43:43.263Z,66.31
2023-07-03T02:44:43.357Z,66.31
2023-07-03T02:45:43.289Z,66.21
2023-07-03T02:46:43.391Z,66.31
2023-07-03T02:47:43.347Z,66.41
2023-07-03T02:48:43.287Z,66.52
2023-07-03T02:49:43.307Z,66.41
2023-07-03T02:50:43.257Z,66.31
2023-07-03T02:51:43.241Z,66.31
2023-07-03T02:52:43.189Z,66.61
2023-07-03T02:53:43.179Z,66.72
2023-07-03T02:54:43.170Z,66.52
2023-07-03T02:55:43.244Z,66.52
2023-07-03T02:56:43.118Z,66.61
2023-07-03T02:57:43.148Z,66.61
2023-07-03T02:58:43.122Z,66.61
2023-07-03T02:59:43.119Z,66.92
2023-07-03T03:00:43.082Z,66.82
2023-07-03T03:01:43.036Z,67.12
2023-07-03T03:02:43.205Z,67.02
2023-07-03T03:03:43.049Z,67.22
2023-07-03T03:04:43.208Z,67.12
2023-07-03T03:05:43.045Z,67.32
2023-07-03T03:06:43.002Z,67.22
2023-07-03T03:07:43.050Z,67.22
2023-07-03T03:08:43.003Z,67.22
2023-07-03T03:09:42.944Z,67.52
2023-07-03T03:10:43.038Z,67.52
2023-07-03T03:11:42.920Z,67.52
2023-07-03T03:12:42.915Z,67.52
2023-07-03T03:13:43.007Z,67.52
2023-07-03T03:14:42.921Z,67.52
2023-07-03T03:15:42.913Z,67.72
2023-07-03T03:16:43.667Z,67.63
2023-07-03T03:17:43.698Z,67.63
2023-07-03T03:18:43.251Z,67.52
2023-07-03T03:19:43.247Z,67.63
2023-07-03T03:20:44.001Z,67.72
2023-07-03T03:21:43.251Z,67.83
2023-07-03T03:22:42.811Z,67.83
2023-07-03T03:23:42.804Z,67.83
2023-07-03T03:24:42.891Z,67.83
2023-07-03T03:25:42.806Z,67.93
2023-07-03T03:26:42.805Z,68.03
2023-07-03T03:27:42.810Z,68.23
2023-07-03T03:28:42.799Z,68.33
2023-07-03T03:29:42.770Z,68.33
2023-07-03T03:30:42.795Z,68.23
2023-07-03T03:31:42.704Z,68.33
2023-07-03T03:32:42.719Z,68.33
2023-07-03T03:33:42.699Z,68.43
2023-07-03T03:34:42.690Z,68.54
2023-07-03T03:35:42.773Z,68.63
2023-07-03T03:36:42.694Z,68.63
2023-07-03T03:37:42.775Z,68.74
2023-07-03T03:38:42.702Z,68.94
2023-07-03T03:39:42.654Z,68.94
2023-07-03T03:40:42.658Z,68.94
2023-07-03T03:41:42.710Z,68.94
2023-07-03T03:42:42.578Z,68.84
2023-07-03T03:43:42.578Z,68.94
2023-07-03T03:44:42.577Z,69.24
2023-07-03T03:45:42.607Z,69.24
2023-07-03T03:46:42.758Z,69.34
2023-07-03T03:47:42.755Z,69.24
2023-07-03T03:48:42.667Z,69.24
2023-07-03T03:49:42.538Z,69.55
2023-07-03T03:50:42.558Z,69.55
2023-07-03T03:51:42.579Z,69.55
2023-07-03T03:52:42.481Z,69.75
2023-07-03T03:53:42.466Z,69.55
2023-07-03T03:54:42.452Z,69.75
2023-07-03T03:55:42.470Z,69.65
2023-07-03T03:56:42.544Z,69.85
2023-07-03T03:57:42.545Z,69.75
2023-07-03T03:58:42.563Z,69.95
2023-07-03T04:00:52.630Z,70.46
2023-07-03T04:01:53.706Z,70.46
2023-07-03T04:02:53.642Z,70.56
2023-07-03T04:03:53.556Z,70.56
2023-07-03T04:04:53.538Z,70.46
2023-07-03T04:05:53.873Z,70.66
2023-07-03T04:06:53.506Z,70.66
2023-07-03T04:07:53.496Z,70.56
2023-07-03T04:08:53.596Z,70.76
2023-07-03T04:09:53.499Z,70.66
2023-07-03T04:10:53.484Z,70.66
2023-07-03T04:11:53.496Z,70.66
2023-07-03T04:12:53.402Z,70.76
2023-07-03T04:13:53.438Z,70.86
2023-07-03T04:14:53.462Z,70.76
2023-07-03T04:15:53.537Z,70.96
2023-07-03T04:16:53.561Z,71.06
2023-07-03T04:17:53.400Z,70.86
2023-07-03T04:18:53.380Z,71.06
2023-07-03T04:19:53.389Z,71.17
2023-07-03T04:20:53.347Z,70.96
2023-07-03T04:21:53.403Z,71.17
2023-07-03T04:22:53.350Z,71.37
2023-07-03T04:23:53.377Z,71.37
2023-07-03T04:24:53.276Z,71.26
2023-07-03T04:25:53.525Z,71.26
2023-07-03T04:26:53.280Z,71.37
2023-07-03T04:27:53.267Z,71.26
2023-07-03T04:28:53.267Z,71.26
2023-07-03T04:29:53.264Z,71.47
2023-07-03T04:30:53.347Z,71.37
2023-07-03T04:31:53.280Z,71.26
2023-07-03T04:32:53.260Z,71.17
2023-07-03T04:33:53.227Z,71.06
2023-07-03T04:34:53.227Z,71.06
2023-07-03T04:35:53.441Z,71.26
2023-07-03T04:36:53.145Z,71.26
2023-07-03T04:37:53.151Z,71.47
2023-07-03T04:38:53.155Z,71.87
2023-07-03T04:39:53.157Z,71.67
2023-07-03T04:40:53.232Z,71.37
2023-07-03T04:41:53.144Z,71.47
2023-07-03T04:42:53.351Z,71.77
2023-07-03T04:43:53.112Z,71.77
2023-07-03T04:44:53.151Z,71.67
2023-07-03T04:45:53.618Z,71.97
2023-07-03T04:46:53.131Z,71.77
2023-07-03T04:47:53.069Z,71.87
2023-07-03T04:48:53.042Z,71.67
2023-07-03T04:49:53.029Z,71.47
2023-07-03T04:50:53.048Z,71.57
2023-07-03T04:51:53.123Z,71.67
2023-07-03T04:52:53.026Z,71.77
2023-07-03T04:53:53.013Z,71.87
2023-07-03T04:54:53.009Z,71.77
2023-07-03T04:55:53.315Z,71.84
2023-07-03T04:56:53.012Z,71.67
2023-07-03T04:57:52.997Z,71.57
2023-07-03T04:58:52.917Z,71.57
2023-07-03T04:59:52.917Z,71.53
2023-07-03T05:00:52.922Z,71.67
2023-07-03T05:01:53.118Z,71.67
2023-07-03T05:02:53.034Z,71.77
2023-07-03T05:03:52.964Z,71.67
2023-07-03T05:04:52.935Z,71.73
2023-07-03T05:05:53.137Z,71.73
2023-07-03T05:06:52.886Z,71.94
2023-07-03T05:07:52.962Z,71.73
2023-07-03T05:08:52.896Z,71.73
2023-07-03T05:09:54.119Z,71.73
2023-07-03T05:10:52.908Z,71.84
2023-07-03T05:11:52.808Z,72.04
2023-07-03T05:12:52.953Z,72.04
2023-07-03T05:13:52.834Z,72.04
2023-07-03T05:14:52.810Z,72.04
2023-07-03T05:15:53.024Z,72.04
2023-07-03T05:16:52.778Z,72.24
2023-07-03T05:17:52.854Z,72.04
2023-07-03T05:18:52.768Z,72.04
2023-07-03T05:19:53.182Z,72.04
2023-07-03T05:20:52.690Z,71.73
2023-07-03T05:21:52.685Z,71.73
2023-07-03T05:22:52.700Z,71.94
2023-07-03T05:23:52.772Z,72.14
2023-07-03T05:24:52.683Z,71.94
2023-07-03T05:25:52.932Z,71.84
2023-07-03T05:26:52.808Z,71.84
2023-07-03T05:27:52.652Z,71.64
2023-07-03T05:28:52.689Z,71.53
2023-07-03T05:29:53.020Z,71.84
2023-07-03T05:30:52.593Z,71.73
2023-07-03T05:31:52.649Z,71.64
2023-07-03T05:32:52.723Z,71.64
2023-07-03T05:33:52.604Z,71.73
2023-07-03T05:34:52.692Z,71.73
2023-07-03T05:35:54.498Z,71.84
2023-07-03T05:36:52.572Z,71.73
2023-07-03T05:37:52.566Z,71.64
2023-07-03T05:38:52.539Z,71.44
2023-07-03T05:39:52.491Z,71.53
2023-07-03T05:40:52.565Z,71.44
2023-07-03T05:41:52.479Z,71.40
2023-07-03T05:42:53.176Z,71.40
2023-07-03T05:43:52.454Z,71.30
2023-07-03T05:44:52.455Z,71.30
2023-07-03T05:45:52.717Z,71.50
2023-07-03T05:46:52.509Z,71.60
2023-07-03T05:47:52.507Z,71.60
2023-07-03T05:48:52.446Z,71.70
2023-07-03T05:49:52.422Z,71.50
2023-07-03T05:50:52.429Z,71.20
2023-07-03T05:51:52.349Z,71.30
2023-07-03T05:54:02.501Z,71.30
2023-07-03T05:55:03.499Z,71.50
2023-07-03T05:56:03.525Z,71.60
2023-07-03T05:57:03.462Z,71.70
2023-07-03T05:58:03.456Z,71.70
2023-07-03T05:59:03.458Z,71.60
2023-07-03T06:00:03.386Z,71.60
2023-07-03T06:01:03.384Z,71.60
2023-07-03T06:02:03.374Z,71.67
2023-07-03T06:03:03.940Z,71.57
2023-07-03T06:04:03.415Z,71.47
2023-07-03T06:05:03.525Z,71.57
2023-07-03T06:06:03.370Z,71.57
2023-07-03T06:07:03.389Z,71.87
2023-07-03T06:08:03.469Z,71.87
2023-07-03T06:09:03.490Z,71.87
2023-07-03T06:10:03.360Z,71.97
2023-07-03T06:11:03.731Z,71.87
2023-07-03T06:12:03.362Z,71.97
2023-07-03T06:13:03.394Z,71.97
2023-07-03T06:14:03.274Z,72.07
2023-07-03T06:15:03.391Z,71.97
2023-07-03T06:17:17.549Z,71.94
2023-07-03T06:18:14.455Z,71.87
2023-07-03T06:19:14.312Z,71.64
2023-07-03T06:20:14.378Z,71.84
2023-07-03T06:21:14.395Z,71.84
2023-07-03T06:22:14.293Z,71.73
2023-07-03T06:23:14.322Z,71.84
2023-07-03T06:24:14.310Z,71.64
2023-07-03T06:25:14.303Z,71.73
2023-07-03T06:26:14.271Z,71.73
2023-07-03T06:27:14.264Z,71.73
2023-07-03T06:28:14.267Z,71.73
2023-07-03T06:29:14.673Z,71.84
2023-07-03T06:30:14.186Z,71.94
2023-07-03T06:31:14.231Z,71.94
2023-07-03T06:32:14.267Z,71.94
2023-07-03T06:33:14.222Z,71.94
2023-07-03T06:34:14.187Z,71.73
2023-07-03T06:35:14.296Z,71.73
2023-07-03T06:36:14.207Z,71.94
2023-07-03T06:37:14.148Z,71.64
2023-07-03T06:38:14.178Z,71.53
2023-07-03T06:39:14.148Z,71.33
2023-07-03T06:40:14.076Z,71.33
2023-07-03T06:41:14.163Z,71.13
2023-07-03T06:42:14.154Z,71.03
2023-07-03T06:43:14.091Z,71.13
2023-07-03T06:44:14.075Z,71.13
2023-07-03T06:45:14.071Z,71.13
2023-07-03T06:46:14.157Z,70.93
2023-07-03T06:47:14.082Z,70.83
2023-07-03T06:48:14.061Z,71.03
2023-07-03T06:49:14.040Z,71.13
2023-07-03T06:50:14.093Z,71.13
2023-07-03T06:51:14.027Z,71.23
2023-07-03T06:52:13.971Z,71.23
2023-07-03T06:53:13.942Z,71.13
2023-07-03T06:54:13.964Z,71.03
2023-07-03T06:55:13.964Z,71.03
2023-07-03T06:56:14.035Z,71.13
2023-07-03T06:57:14.043Z,70.93
2023-07-03T06:58:28.852Z,70.73
2023-07-03T06:59:13.913Z,70.73
2023-07-03T07:00:13.917Z,70.62
2023-07-03T07:01:13.919Z,70.62
2023-07-03T07:02:14.047Z,70.53
2023-07-03T07:03:13.940Z,70.53
2023-07-03T07:04:14.014Z,70.53
2023-07-03T07:05:13.915Z,70.53
2023-07-03T07:06:13.908Z,70.73
2023-07-03T07:07:13.823Z,70.53
2023-07-03T07:08:13.841Z,70.22
2023-07-03T07:09:13.828Z,70.12
2023-07-03T07:10:13.842Z,70.12
2023-07-03T07:11:13.813Z,70.02
2023-07-03T07:12:19.969Z,70.02
2023-07-03T07:13:19.833Z,70.02
2023-07-03T07:14:20.310Z,70.12
2023-07-03T07:15:13.724Z,70.22
2023-07-03T07:16:13.752Z,70.19
2023-07-03T07:17:13.839Z,69.79
2023-07-03T07:18:13.781Z,69.18
2023-07-03T07:19:13.738Z,68.98
2023-07-03T07:20:13.734Z,68.68
2023-07-03T07:21:13.685Z,68.68
2023-07-03T07:22:13.734Z,68.68
2023-07-03T07:23:13.719Z,68.48
2023-07-03T07:24:13.699Z,68.37
2023-07-03T07:25:13.710Z,68.37
2023-07-03T07:26:13.603Z,68.17
2023-07-03T07:27:13.596Z,68.17
2023-07-03T07:28:13.689Z,67.57
2023-07-03T07:29:13.615Z,67.67
2023-07-03T07:30:13.649Z,67.47
2023-07-03T07:31:13.676Z,67.57
2023-07-03T07:32:13.593Z,67.57
2023-07-03T07:33:13.585Z,67.77
2023-07-03T07:34:13.508Z,67.77
2023-07-03T07:35:13.536Z,67.77
2023-07-03T07:36:13.570Z,67.77
2023-07-03T07:37:13.490Z,67.36
2023-07-03T07:38:13.485Z,66.96
2023-07-03T07:39:13.475Z,66.96
2023-07-03T07:40:13.583Z,66.96
2023-07-03T07:41:13.592Z,67.27
2023-07-03T07:42:13.502Z,67.47
2023-07-03T07:43:13.464Z,67.57
2023-07-03T07:44:13.385Z,67.47
2023-07-03T07:45:13.455Z,66.93
2023-07-03T07:46:13.412Z,66.86
2023-07-03T07:47:13.456Z,66.42
2023-07-03T07:48:13.467Z,65.92
2023-07-03T07:49:13.470Z,65.92
2023-07-03T07:50:13.475Z,66.02
2023-07-03T07:51:13.368Z,66.33
2023-07-03T07:52:13.385Z,66.33
2023-07-03T07:53:13.373Z,66.33
2023-07-03T07:54:13.335Z,66.22
2023-07-03T07:55:13.338Z,66.02
2023-07-03T07:56:13.260Z,64.92
2023-07-03T07:57:13.243Z,64.21
2023-07-03T07:58:13.275Z,64.01
2023-07-03T07:59:13.336Z,63.40
2023-07-03T08:00:13.261Z,63.40
2023-07-03T08:01:13.398Z,63.20
2023-07-03T08:02:13.301Z,62.49
2023-07-03T08:03:13.382Z,62.70
2023-07-03T08:04:13.358Z,62.80
2023-07-03T08:05:13.272Z,63.10
2023-07-03T08:06:13.220Z,63.40
2023-07-03T08:07:13.147Z,63.30
2023-07-03T08:08:13.134Z,63.37
2023-07-03T08:09:13.223Z,63.47
2023-07-03T08:10:13.220Z,63.47
2023-07-03T08:11:13.157Z,63.57
2023-07-03T08:12:13.138Z,63.47
2023-07-03T08:13:13.136Z,62.57
2023-07-03T08:14:13.135Z,62.44
2023-07-03T08:15:13.155Z,62.13
2023-07-03T08:16:13.168Z,61.73
2023-07-03T08:17:13.044Z,61.83
2023-07-03T08:18:13.135Z,61.73
2023-07-03T08:19:13.026Z,61.73
2023-07-03T08:20:13.032Z,61.83
2023-07-03T08:21:13.033Z,61.83
2023-07-03T08:22:13.102Z,61.80
2023-07-03T08:23:13.037Z,61.70
2023-07-03T08:24:13.011Z,61.30
2023-07-03T08:25:13.033Z,61.20
2023-07-03T08:26:12.994Z,61.50
2023-07-03T08:27:12.987Z,61.70
2023-07-03T08:28:12.997Z,61.90
2023-07-03T08:29:12.988Z,61.87
2023-07-03T08:30:12.902Z,61.57
2023-07-03T08:31:12.963Z,61.27
2023-07-03T08:32:13.006Z,60.47
2023-07-03T08:33:13.076Z,60.36
2023-07-03T08:34:12.905Z,59.86
2023-07-03T08:37:12.872Z,59.46
2023-07-03T08:38:12.889Z,59.16
2023-07-03T08:39:12.877Z,59.36
2023-07-03T08:40:12.883Z,59.26
2023-07-03T08:41:12.829Z,59.06
2023-07-03T08:42:12.790Z,58.86
2023-07-03T08:43:14.608Z,58.65
2023-07-03T08:44:12.808Z,58.75
2023-07-03T08:45:12.900Z,58.86
2023-07-03T08:46:12.824Z,59.26
2023-07-03T08:47:12.798Z,59.26
2023-07-03T08:48:12.858Z,59.56
2023-07-03T08:49:12.695Z,59.76
2023-07-03T08:50:14.835Z,59.26
2023-07-03T08:51:12.760Z,58.95
2023-07-03T08:52:12.755Z,58.65
2023-07-03T08:53:12.671Z,58.65
2023-07-03T08:54:12.758Z,58.33
2023-07-03T08:55:12.667Z,58.33
2023-07-03T08:56:12.689Z,58.02
2023-07-03T08:57:12.667Z,57.92
2023-07-03T08:58:12.645Z,58.22
2023-07-03T08:59:12.677Z,57.82
2023-07-03T09:00:12.654Z,57.22
2023-07-03T09:01:12.604Z,57.12
2023-07-03T09:02:12.582Z,57.12
2023-07-03T09:03:12.675Z,57.02
2023-07-03T09:04:12.645Z,57.12
2023-07-03T09:05:12.550Z,57.42
2023-07-03T09:06:12.573Z,57.42
2023-07-03T09:07:12.647Z,57.52
2023-07-03T09:08:12.546Z,57.22
2023-07-03T09:09:13.488Z,57.32
2023-07-03T09:10:12.534Z,56.82
2023-07-03T09:11:12.539Z,57.22
2023-07-03T09:12:12.457Z,57.02
2023-07-03T09:13:12.440Z,57.12
2023-07-03T09:14:12.588Z,57.52
2023-07-03T09:15:12.521Z,57.42
2023-07-03T09:16:12.451Z,57.52
2023-07-03T09:17:12.541Z,57.72
2023-07-03T09:18:12.820Z,57.52
2023-07-03T09:19:12.400Z,57.02
2023-07-03T09:20:12.398Z,57.12
2023-07-03T09:21:12.433Z,56.92
2023-07-03T09:22:12.446Z,57.42
2023-07-03T09:23:12.403Z,57.52
2023-07-03T09:24:12.322Z,57.62
2023-07-03T09:25:12.326Z,57.29
2023-07-03T09:26:12.335Z,56.71
2023-07-03T09:27:12.325Z,56.62
2023-07-03T09:28:12.413Z,56.82
2023-07-03T09:29:12.403Z,56.99
2023-07-03T09:30:12.855Z,56.59
2023-07-03T09:31:12.430Z,56.31
2023-07-03T09:32:12.290Z,56.41
2023-07-03T09:33:12.324Z,56.51
2023-07-03T09:34:12.284Z,56.51
2023-07-03T09:35:12.213Z,57.12
2023-07-03T09:36:12.362Z,57.32
2023-07-03T09:37:12.203Z,57.02
2023-07-03T09:38:13.006Z,56.41
2023-07-03T09:39:12.284Z,55.91
2023-07-03T09:40:12.175Z,56.11
2023-07-03T09:41:12.530Z,56.41
2023-07-03T09:42:12.757Z,56.44
2023-07-03T09:43:12.167Z,56.34
2023-07-03T09:44:13.241Z,56.84
2023-07-03T09:45:12.411Z,57.45
2023-07-03T09:46:12.089Z,58.05
2023-07-03T09:47:12.147Z,58.55
2023-07-03T09:48:12.217Z,59.36
2023-07-03T09:49:12.787Z,59.96
2023-07-03T09:50:13.833Z,60.77
2023-07-03T09:51:12.442Z,61.17
2023-07-03T09:52:12.058Z,61.57
2023-07-03T09:53:12.324Z,61.47
2023-07-03T09:54:12.016Z,62.58
2023-07-03T09:55:12.055Z,62.98
2023-07-03T09:56:11.969Z,62.61
2023-07-03T09:57:11.973Z,63.21
2023-07-03T09:58:12.115Z,63.71
2023-07-03T09:59:11.980Z,63.62
2023-07-03T10:00:12.068Z,64.02
2023-07-03T10:03:31.404Z,64.02
2023-07-03T10:03:37.621Z,64.22
2023-07-03T10:06:37.566Z,64.72
2023-07-03T10:07:37.695Z,64.82
2023-07-03T10:08:37.799Z,64.82
2023-07-03T10:11:37.482Z,64.22
2023-07-03T10:12:37.549Z,64.42
2023-07-03T10:13:39.253Z,64.42
2023-07-03T10:14:37.420Z,64.82
2023-07-03T10:15:37.428Z,64.62
2023-07-03T10:16:37.489Z,64.22
2023-07-03T10:17:37.502Z,64.32
2023-07-03T10:18:37.445Z,64.22
2023-07-03T10:19:37.382Z,63.62
2023-07-03T10:20:37.387Z,63.42
2023-07-03T10:21:37.380Z,63.42
2023-07-03T10:22:37.303Z,63.51
2023-07-03T10:23:37.323Z,63.92
2023-07-03T10:24:37.299Z,63.92
2023-07-03T10:25:37.301Z,63.62
2023-07-03T10:26:37.380Z,63.62
2023-07-03T10:27:37.260Z,63.31
2023-07-03T10:28:37.267Z,63.21
2023-07-03T10:29:38.986Z,63.62
2023-07-03T10:30:37.580Z,63.89
2023-07-03T10:31:37.395Z,64.09
2023-07-03T10:32:37.252Z,64.09
2023-07-03T10:33:37.189Z,63.79
2023-07-03T10:34:37.266Z,63.39
2023-07-03T10:35:37.194Z,63.59
2023-07-03T10:36:37.266Z,63.59
2023-07-03T10:37:37.195Z,63.65
2023-07-03T10:38:37.188Z,63.56
2023-07-03T10:39:37.155Z,63.56
2023-07-03T10:40:37.145Z,63.76
2023-07-03T10:41:40.560Z,63.85
2023-07-03T10:43:05.037Z,63.73
2023-07-03T10:43:37.106Z,63.53
2023-07-03T10:44:37.076Z,63.02
2023-07-03T10:45:38.073Z,62.92
2023-07-03T10:46:37.187Z,62.72
2023-07-03T10:47:37.144Z,62.52
2023-07-03T10:48:37.076Z,62.42
2023-07-03T10:49:37.066Z,61.58
2023-07-03T10:50:38.124Z,61.49
2023-07-03T10:51:37.075Z,61.58
2023-07-03T10:52:37.031Z,61.69
2023-07-03T10:53:36.978Z,61.58
2023-07-03T10:54:37.047Z,60.98
2023-07-03T10:55:36.966Z,61.08
2023-07-03T10:56:37.059Z,60.98
2023-07-03T10:57:37.046Z,61.15
2023-07-03T10:58:36.941Z,60.96
2023-07-03T10:59:36.952Z,60.85
2023-07-03T11:00:36.956Z,60.75
2023-07-03T11:01:36.948Z,61.05
2023-07-03T11:02:37.007Z,60.96
2023-07-03T11:03:36.861Z,60.42
2023-07-03T11:04:36.905Z,60.52
2023-07-03T11:05:36.869Z,60.32
2023-07-03T11:06:36.864Z,60.42
2023-07-03T11:07:36.859Z,60.42
2023-07-03T11:08:36.923Z,60.52
2023-07-03T11:09:36.835Z,60.52
2023-07-03T11:10:36.836Z,60.22
2023-07-03T11:11:37.100Z,59.92
2023-07-03T11:12:36.841Z,59.62
2023-07-03T11:13:36.876Z,59.59
2023-07-03T11:14:36.800Z,59.79
2023-07-03T11:15:36.800Z,59.69
2023-07-03T11:16:36.768Z,59.59
2023-07-03T11:17:36.763Z,59.39
2023-07-03T11:23:36.775Z,57.46
2023-07-03T11:24:36.677Z,57.06
2023-07-03T11:25:36.851Z,56.43
2023-07-03T11:28:36.700Z,54.62
2023-07-03T11:29:36.604Z,54.02
2023-07-03T11:30:36.680Z,54.12
2023-07-03T11:31:36.660Z,53.59
2023-07-03T11:32:36.654Z,53.09
2023-07-03T11:36:49.879Z,52.77
2023-07-03T11:40:37.170Z,52.55
2023-07-03T11:43:36.475Z,52.22
2023-07-03T11:44:36.536Z,51.82
2023-07-03T11:45:36.479Z,51.82
2023-07-03T11:46:36.488Z,51.39
2023-07-03T11:47:36.489Z,51.09
2023-07-03T11:48:36.465Z,51.29
2023-07-03T11:49:36.459Z,50.49
2023-07-03T11:50:36.466Z,50.37
2023-07-03T11:51:36.502Z,50.17
2023-07-03T11:52:39.394Z,50.07
2023-07-03T11:53:36.406Z,49.97
2023-07-03T11:54:36.622Z,49.77
2023-07-03T11:55:36.517Z,49.44
2023-07-03T11:56:36.340Z,49.44
2023-07-03T11:57:36.394Z,49.55
2023-07-03T11:58:36.272Z,49.05
2023-07-03T11:59:36.264Z,48.85
2023-07-03T12:00:36.572Z,48.94
2023-07-03T12:01:36.935Z,48.85
2023-07-03T12:02:37.725Z,48.85
2023-07-03T12:03:36.376Z,49.02
2023-07-03T12:04:36.345Z,48.63
2023-07-03T12:05:36.475Z,48.43
2023-07-03T12:06:36.218Z,48.43
2023-07-03T12:07:36.334Z,48.50
2023-07-03T12:08:36.368Z,48.40
2023-07-03T12:09:36.145Z,48.30
2023-07-03T12:10:36.243Z,47.80
2023-07-03T12:11:36.155Z,47.48
2023-07-03T12:12:36.725Z,47.58
2023-07-03T12:13:37.096Z,47.08
2023-07-03T12:14:36.130Z,46.88
2023-07-03T12:15:36.140Z,46.66
2023-07-03T12:16:36.846Z,46.76
2023-07-03T12:17:41.950Z,47.08
2023-07-03T12:18:37.923Z,47.66
2023-07-03T12:19:37.665Z,47.26
2023-07-03T12:20:36.133Z,47.26
2023-07-03T12:21:36.014Z,46.76
2023-07-03T12:22:36.169Z,46.86
2023-07-03T12:23:36.363Z,47.06
2023-07-03T12:24:36.164Z,46.36
2023-07-03T12:25:36.105Z,46.28
2023-07-03T12:26:36.104Z,46.28
2023-07-03T12:27:36.138Z,46.28
2023-07-03T12:28:35.987Z,46.58
2023-07-03T12:29:36.144Z,46.88
2023-07-03T12:30:35.984Z,46.98
2023-07-03T12:31:36.121Z,47.10
2023-07-03T12:32:36.239Z,47.20
2023-07-03T12:33:36.350Z,47.28
2023-07-03T12:34:36.132Z,47.48
2023-07-03T12:35:36.120Z,47.38
2023-07-03T12:36:40.189Z,46.98
2023-07-03T12:37:35.979Z,45.68
2023-07-03T12:38:36.143Z,44.29
2023-07-03T12:39:35.863Z,43.79
2023-07-03T12:40:36.071Z,43.69
2023-07-03T12:41:35.904Z,43.61
2023-07-03T12:42:35.890Z,43.79
2023-07-03T12:43:35.788Z,44.09
2023-07-03T12:44:35.797Z,45.01
2023-07-03T12:45:36.015Z,44.89
2023-07-03T12:46:36.029Z,44.38
2023-07-03T12:47:35.882Z,44.29
2023-07-03T12:48:36.249Z,44.49
2023-07-03T12:49:35.738Z,44.89
2023-07-03T12:50:35.754Z,45.39
2023-07-03T12:51:35.906Z,44.99
2023-07-03T12:52:35.752Z,44.59
2023-07-03T12:53:35.665Z,44.59
2023-07-03T12:54:35.757Z,44.67
2023-07-03T12:55:35.876Z,45.17
2023-07-03T12:56:35.880Z,44.96
2023-07-03T12:57:35.909Z,44.67
2023-07-03T12:58:35.880Z,44.45
2023-07-03T12:59:35.622Z,44.65
2023-07-03T13:00:36.251Z,45.14
2023-07-03T13:01:35.622Z,45.24
2023-07-03T13:02:35.668Z,45.04
2023-07-03T13:03:35.785Z,44.84
2023-07-03T13:04:35.653Z,44.24
2023-07-03T13:05:35.711Z,44.02
2023-07-03T13:06:35.628Z,44.42
2023-07-03T13:07:35.693Z,44.92
2023-07-03T13:08:35.630Z,45.02
2023-07-03T13:09:35.567Z,44.53
2023-07-03T13:10:35.542Z,44.50
2023-07-03T13:11:35.515Z,44.50
2023-07-03T13:12:35.587Z,43.51
2023-07-03T13:13:35.562Z,43.41
2023-07-03T13:14:35.513Z,43.21
2023-07-03T13:15:35.726Z,42.81
2023-07-03T13:16:35.526Z,42.61
2023-07-03T13:17:35.592Z,43.30
2023-07-03T13:18:35.418Z,43.52